Soleil Weather Down

Update 12/10/18:

We are back in town and I have ordered a new weather instrument and transmission unit. After numerous repairs over the past 11 years, I decided it did not make sense to spend more on the old unit. The new one is on back order, but I expect to have it within 2 weeks. Hopefully the station will be fully up by the first of the year. I am installing software on a new computer as well. I miss the local weather! Happy Holidays!

Nearby METAR Reports

 

KCNI - Canton/Cherokee, Georgia, USA
Distance from station: ENE 6mi, 10km
Updated: Tue, 18-Dec-2018 6:35pm EST
Clear
Clear
 Wind from calm
Wind: Calm
Temperature: 52°F , 11°C
Dew Point: 30°F , -1°C
Humidity: 44%
Barometer: 30.10 inHg , 1019.3 hPa
Clouds: Clear
Visibility: 10 miles , 16 km
2018/12/18 23:35 KCNI 182335Z AUTO 00000KT 10SM CLR 11/M01 A3010 RMK AO2
KRYY - Marietta Mccolum, Georgia, USA
Distance from station: SSW 18mi, 29km
Updated: Tue, 18-Dec-2018 6:48pm EST
Clear
Clear
 Wind from calm
Wind: Calm
Temperature: 46°F , 8°C
Dew Point: 32°F , 0°C
Humidity: 57%
Barometer: 30.10 inHg , 1019.3 hPa
Clouds: Clear
Visibility: 10 miles , 16 km
2018/12/18 23:48 KRYY 182348Z 00000KT 10SM CLR 08/00 A3010 RMK AO2 SLP914 T00780000 10167 20078 53009
KVPC - Cartersville, Georgia, USA
Distance from station: WSW 22mi, 35km
Updated: Tue, 18-Dec-2018 6:53pm EST
Clear
Clear
 Wind from calm
Wind: Calm
Temperature: 41°F , 5°C
Dew Point: 36°F , 2°C
Humidity: 81%
Barometer: 30.10 inHg , 1019.3 hPa
Clouds: Clear
Visibility: 10 miles , 16 km
2018/12/18 23:53 KVPC 182353Z AUTO 00000KT 10SM CLR 05/02 A3010 RMK AO2 SLP192 T00500017 10161 20050 53009
 
KMGE - Dobbins Afb/Mari, Georgia, USA
Distance from station: S 24mi, 39km
Updated: Tue, 18-Dec-2018 5:56pm EST
Mostly cloudy
Mostly cloudy
 Wind from NNW
Wind: NNW 2 mph , 4 km/h
Temperature: 52°F , 11°C
Dew Point: 30°F , -1°C
Humidity: 44%
Barometer: 30.06 inHg , 1017.9 hPa
Clouds: Mostly cloudy
Visibility: 10 miles , 16 km
Cloud details: Mostly cloudy 25000 ft
2018/12/18 22:56 KMGE 182256Z 33002KT 10SM BKN250 11/M01 A3006 RMK AO2A SLP182 T01061008 $
KPDK - Peachtree/Dekalb, Georgia, USA
Distance from station: SSE 29mi, 47km
Updated: Tue, 18-Dec-2018 6:53pm EST
Clear
Clear
 Wind from calm
Wind: Calm
Temperature: 48°F , 9°C
Dew Point: 32°F , 0°C
Humidity: 54%
Barometer: 30.09 inHg , 1019 hPa
Clouds: Clear
Visibility: 10 miles , 16 km
2018/12/18 23:53 KPDK 182353Z 00000KT 10SM CLR 09/00 A3009 RMK AO2 SLP196 T00890000 10172 20083 53011
KFTY - Atlanta/Fulton, Georgia, USA
Distance from station: S 34mi, 54km
Updated: Tue, 18-Dec-2018 6:53pm EST
Clear
Clear
 Wind from calm
Wind: Calm
Temperature: 48°F , 9°C
Dew Point: 36°F , 2°C
Humidity: 62%
Barometer: 30.08 inHg , 1018.6 hPa
Clouds: Clear
Visibility: 10 miles , 16 km
2018/12/18 23:53 KFTY 182353Z 00000KT 10SM CLR 09/02 A3008 RMK AO2 SLP188 T00890017 10178 20089 53010
 
KPUJ - Atlanta/Paulding, Georgia, USA
Distance from station: SW 34mi, 55km
Updated: Tue, 18-Dec-2018 6:35pm EST
Clear
Clear
 Wind from NW
Wind: NW 6 mph , 9 km/h
Temperature: 50°F , 10°C
Wind Chill: 48°F , 9°C
Dew Point: 30°F , -1°C
Humidity: 47%
Barometer: 30.08 inHg , 1018.6 hPa
Clouds: Clear
Visibility: 10 miles , 16 km
2018/12/18 23:35 KPUJ 182335Z AUTO 32005KT 10SM CLR 10/M01 A3008 RMK AO2
KDNN - Dalton, Georgia, USA
Distance from station: NW 37mi, 59km
Updated: Tue, 18-Dec-2018 6:35pm EST
Clear
Clear
 Wind from calm
Wind: Calm
Temperature: 43°F , 6°C
Dew Point: 34°F , 1°C
Humidity: 71%
Barometer: 30.11 inHg , 1019.6 hPa
Clouds: Clear
Visibility: 10 miles , 16 km
2018/12/18 23:35 KDNN 182335Z AUTO 00000KT 10SM CLR 06/01 A3011 RMK AO2
KLZU - Lawrenceville, Georgia, USA
Distance from station: ESE 37mi, 59km
Updated: Tue, 18-Dec-2018 5:56pm EST
Clear
Clear
 Wind from calm
Wind: Calm
Temperature: 52°F , 11°C
Dew Point: 36°F , 2°C
Humidity: 54%
Barometer: 30.07 inHg , 1018.3 hPa
Clouds: Clear
Visibility: 10 miles , 16 km
2018/12/18 22:56 KLZU 182256Z 00000KT 10SM CLR 11/02 A3007 RMK AO2 SLP196 T01110022
 
KRMG - Rome, Georgia, USA
Distance from station: W 38mi, 61km
Updated: Tue, 18-Dec-2018 6:53pm EST
Clear
Clear
 Wind from NNE
Wind: NNE 3 mph , 6 km/h
Temperature: 43°F , 6°C
Dew Point: 34°F , 1°C
Humidity: 71%
Barometer: 30.09 inHg , 1019 hPa
Clouds: Clear
Visibility: 10 miles , 16 km
2018/12/18 23:53 KRMG 182353Z AUTO 02003KT 10SM CLR 06/01 A3009 RMK AO2 SLP189 T00610011 10161 20061 53009
KGVL - Gainesville, Georgia, USA
Distance from station: E 39mi, 62km
Updated: Tue, 18-Dec-2018 6:53pm EST
Clear
Clear
 Wind from ESE
Wind: ESE 6 mph , 9 km/h
Temperature: 54°F , 12°C
Dew Point: 30°F , -1°C
Humidity: 41%
Barometer: 30.10 inHg , 1019.3 hPa
Clouds: Clear
Visibility: 10 miles , 16 km
2018/12/18 23:53 KGVL 182353Z AUTO 11005KT 10SM CLR 12/M01 A3010 RMK AO2 SLP192 T01171011 10161 20106 51011
KATL - Atlanta, Georgia, USA
Distance from station: S 44mi, 71km
Updated: Tue, 18-Dec-2018 6:52pm EST
Mostly cloudy
Mostly cloudy
 Wind from calm
Wind: Calm
Temperature: 55°F , 13°C
Dew Point: 30°F , -1°C
Humidity: 38%
Barometer: 30.08 inHg , 1018.6 hPa
Clouds: Mostly cloudy
Visibility: 10 miles , 16 km
Cloud details: Few Clouds 20000 ft
Mostly cloudy 25000 ft
2018/12/18 23:52 KATL 182352Z 00000KT 10SM FEW200 BKN250 13/M01 A3008 RMK AO2 SLP189 T01331006 10183 20122 53008